Time;durP1;ratioP1;P1;durP2;ratioP2;P2;SDS_P1;SDS_P2;PMS_P1;PMS_P2;Temp;Humidity;BMP_temperature;BMP_pressure;BME280_temperature;BME280_humidity;BME280_pressure;Samples;Min_cycle;Max_cycle;Signal;HPM_P1;HPM_P2
2021/11/10 00:00:50;;;;;;;7.78;4.82;;;;;;;23.05;47.41;101097.91;4420311;32;20042;-70
2021/11/10 00:03:18;;;;;;;8.75;5.12;;;;;;;23.11;47.06;101098.69;4424744;32;20472;-70
2021/11/10 00:05:44;;;;;;;7.37;5.05;;;;;;;23.25;46.96;101091.97;4420910;32;20025;-70
2021/11/10 00:08:10;;;;;;;8.02;5.25;;;;;;;23.29;46.75;101095.41;4418993;32;20755;-70
2021/11/10 00:10:36;;;;;;;5.55;4.95;;;;;;;23.61;46.08;101101.72;4421022;32;20038;-70
2021/11/10 00:13:17;;;;;;;9.70;4.72;;;;;;;23.48;46.48;101100.12;4422533;32;20955;-70
2021/11/10 00:15:44;;;;;;;7.15;4.72;;;;;;;23.69;45.91;101100.69;4420839;32;20041;-70
2021/11/10 00:18:10;;;;;;;11.50;4.68;;;;;;;23.77;45.80;101103.84;4417881;32;20453;-70
2021/11/10 00:20:35;;;;;;;5.43;4.00;;;;;;;23.65;46.19;101108.75;4419726;32;20547;-70
2021/11/10 00:23:01;;;;;;;7.75;4.68;;;;;;;23.72;45.58;101110.34;4419801;32;20125;-70
2021/11/10 00:25:27;;;;;;;5.43;4.37;;;;;;;23.76;45.69;101110.88;4420886;32;20067;-70
2021/11/10 00:27:52;;;;;;;6.70;4.20;;;;;;;23.73;45.74;101106.97;4423709;32;20093;-70
2021/11/10 00:30:18;;;;;;;5.93;3.72;;;;;;;23.96;45.09;101114.31;4418896;32;20463;-70
2021/11/10 00:32:43;;;;;;;5.25;4.05;;;;;;;23.87;45.31;101111.66;4420280;32;20063;-70
2021/11/10 00:35:09;;;;;;;6.45;3.83;;;;;;;23.81;45.70;101108.03;4420628;32;20049;-70
2021/11/10 00:37:35;;;;;;;4.53;3.67;;;;;;;23.86;45.51;101106.44;4419516;32;20114;-70
2021/11/10 00:40:00;;;;;;;6.00;4.00;;;;;;;23.86;45.59;101110.09;4421756;32;20073;-70
2021/11/10 00:42:27;;;;;;;5.10;3.80;;;;;;;23.83;45.60;101105.38;4424108;32;20399;-70
2021/11/10 00:44:53;;;;;;;5.95;4.35;;;;;;;23.82;45.75;101109.59;4420469;32;20150;-70
2021/11/10 00:47:19;;;;;;;5.55;4.00;;;;;;;23.92;45.54;101099.38;4423002;32;20076;-69
2021/11/10 00:49:45;;;;;;;7.12;4.53;;;;;;;23.94;45.58;101088.16;4418898;32;20463;-70
2021/11/10 00:52:11;;;;;;;5.57;3.80;;;;;;;24.00;45.46;101082.44;4419314;32;20509;-70
2021/11/10 00:54:36;;;;;;;6.57;3.70;;;;;;;24.11;45.35;101076.69;4419519;32;21184;-70
2021/11/10 00:57:02;;;;;;;6.05;4.30;;;;;;;24.18;45.19;101082.69;4419469;32;20407;-70
2021/11/10 00:59:28;;;;;;;6.50;3.95;;;;;;;24.10;45.41;101087.38;4420055;32;20406;-70
2021/11/10 01:01:53;;;;;;;5.12;4.07;;;;;;;24.02;45.37;101089.22;4422284;32;20053;-70
2021/11/10 01:04:19;;;;;;;5.62;3.75;;;;;;;24.21;45.04;101095.97;4420224;32;20037;-70
2021/11/10 01:06:45;;;;;;;3.85;2.20;;;;;;;24.06;45.33;101098.37;4418208;32;20437;-69
2021/11/10 01:09:16;;;;;;;2.03;1.73;;;;;;;23.51;45.58;101101.19;4421324;32;20644;-70
2021/11/10 01:11:45;;;;;;;1.92;1.50;;;;;;;23.12;45.64;101098.19;4422284;32;20042;-70
2021/11/10 01:14:13;;;;;;;1.23;1.00;;;;;;;22.98;46.41;101101.28;4420096;32;20107;-70
2021/11/10 01:16:39;;;;;;;1.37;0.90;;;;;;;22.96;45.96;101098.13;4424792;32;20446;-70
2021/11/10 01:19:05;;;;;;;1.20;0.80;;;;;;;22.94;45.76;101097.84;4420424;32;20069;-70
2021/11/10 01:21:31;;;;;;;1.33;0.75;;;;;;;23.01;45.82;101103.09;4419645;32;20207;-70
2021/11/10 01:23:57;;;;;;;3.17;0.90;;;;;;;23.07;45.64;101101.81;4418933;32;20063;-70
2021/11/10 01:26:23;;;;;;;1.35;0.60;;;;;;;23.30;44.93;101096.97;4419062;32;20018;-70
2021/11/10 01:28:49;;;;;;;0.95;0.30;;;;;;;23.36;44.46;101106.38;4420728;32;20081;-70
2021/11/10 01:31:16;;;;;;;1.12;0.40;;;;;;;23.05;44.51;101106.50;4417257;32;20096;-69
2021/11/10 01:33:42;;;;;;;2.70;0.20;;;;;;;22.92;44.58;101121.31;4421178;32;20069;-69
2021/11/10 01:36:07;;;;;;;0.62;0.40;;;;;;;22.84;44.51;101119.47;4420878;32;20405;-69
2021/11/10 01:38:33;;;;;;;0.65;0.40;;;;;;;22.57;44.95;101117.22;4420662;32;20078;-70
2021/11/10 01:40:59;;;;;;;1.48;0.35;;;;;;;22.83;44.07;101117.91;4419402;32;20484;-70
2021/11/10 01:43:25;;;;;;;1.77;0.30;;;;;;;22.84;43.96;101125.19;4417905;32;20100;-70
2021/11/10 01:45:54;;;;;;;0.30;0.20;;;;;;;22.90;43.05;101132.56;4417812;32;20435;-70
2021/11/10 01:48:20;;;;;;;0.70;0.20;;;;;;;23.30;42.18;101135.09;4419763;32;20462;-70
2021/11/10 01:50:47;;;;;;;1.67;0.10;;;;;;;23.04;41.86;101133.66;4420211;32;20052;-70
2021/11/10 01:53:13;;;;;;;0.25;0.10;;;;;;;23.08;41.57;101139.94;4419530;32;20077;-70
2021/11/10 01:55:39;;;;;;;0.15;0.10;;;;;;;23.03;41.24;101132.88;4417526;32;20042;-70
2021/11/10 01:58:06;;;;;;;0.30;0.10;;;;;;;22.99;40.92;101140.16;4421780;32;20042;-70
2021/11/10 02:00:35;;;;;;;0.22;0.10;;;;;;;22.93;40.75;101139.34;4419045;32;20073;-70
2021/11/10 02:03:01;;;;;;;0.77;0.20;;;;;;;23.03;41.02;101143.56;4423249;32;20064;-70
2021/11/10 02:05:27;;;;;;;0.60;0.20;;;;;;;22.96;41.07;101144.84;4421917;32;20117;-70
2021/11/10 02:07:53;;;;;;;0.60;0.20;;;;;;;23.07;40.77;101138.37;4421791;32;20034;-70
2021/11/10 02:10:24;;;;;;;0.40;0.32;;;;;;;23.19;40.49;101139.97;4428523;32;20096;-69
2021/11/10 02:12:51;;;;;;;1.25;0.20;;;;;;;23.36;40.24;101140.84;4425315;32;20059;-70
2021/11/10 02:15:18;;;;;;;0.68;0.20;;;;;;;23.00;40.66;101135.97;4417278;32;20160;-70
2021/11/10 02:17:49;;;;;;;0.62;0.20;;;;;;;23.12;40.42;101131.84;4420916;32;20148;-70
2021/11/10 02:20:16;;;;;;;0.77;0.20;;;;;;;23.33;39.83;101131.19;4420262;32;20029;-70
2021/11/10 02:22:42;;;;;;;1.98;0.20;;;;;;;23.01;40.60;101137.56;4421154;32;20118;-70
2021/11/10 02:25:10;;;;;;;0.15;0.10;;;;;;;22.99;40.52;101135.19;4421961;32;20069;-70
2021/11/10 02:27:37;;;;;;;0.95;0.10;;;;;;;22.99;40.67;101143.81;4423086;32;20072;-70
2021/11/10 02:30:07;;;;;;;6.28;2.60;;;;;;;23.13;40.30;101147.75;4419729;32;20356;-70
2021/11/10 02:32:34;;;;;;;0.32;0.30;;;;;;;23.11;40.44;101141.78;4421855;32;20041;-70
2021/11/10 02:35:00;;;;;;;0.35;0.10;;;;;;;23.00;40.54;101148.25;4420232;32;20038;-70
2021/11/10 02:37:26;;;;;;;1.08;0.20;;;;;;;22.95;40.63;101140.38;4418371;32;20073;-70
2021/11/10 02:39:52;;;;;;;1.33;0.20;;;;;;;22.67;40.91;101138.69;4422847;32;20099;-70
2021/11/10 02:42:19;;;;;;;0.32;0.10;;;;;;;22.60;40.51;101139.16;4422421;32;20092;-69
2021/11/10 02:44:53;;;;;;;0.17;0.03;;;;;;;22.52;40.47;101138.84;4423650;32;20082;-69
2021/11/10 02:47:19;;;;;;;0.80;0.10;;;;;;;;;;4419698;32;20080;-69
2021/11/10 02:49:46;;;;;;;0.15;0.10;;;;;;;22.20;40.29;101131.56;4422539;32;20379;-69
2021/11/10 02:52:16;;;;;;;0.57;0.13;;;;;;;22.09;40.79;101131.47;4424233;32;20564;-69
2021/11/10 02:54:46;;;;;;;3.30;0.10;;;;;;;22.10;40.77;101133.03;4422139;32;20076;-69
2021/11/10 02:57:12;;;;;;;3.03;0.35;;;;;;;22.25;40.45;101127.16;4421030;32;20119;-69
2021/11/10 02:59:38;;;;;;;0.45;0.22;;;;;;;22.04;40.89;101128.56;4426152;32;20073;-69
2021/11/10 03:02:05;;;;;;;0.65;0.10;;;;;;;22.09;40.57;101122.84;4423670;32;20077;-70
2021/11/10 03:04:34;;;;;;;3.62;0.20;;;;;;;21.88;40.35;101130.00;4422051;32;20084;-70
2021/11/10 03:07:01;;;;;;;0.55;0.30;;;;;;;22.27;40.06;101131.09;4423756;32;20022;-70
2021/11/10 03:09:29;;;;;;;0.40;0.10;;;;;;;22.27;40.21;101128.22;4424834;32;20094;-70
2021/11/10 03:11:58;;;;;;;0.60;0.20;;;;;;;22.41;39.99;101130.16;4423270;32;20076;-70
2021/11/10 03:14:26;;;;;;;0.75;0.30;;;;;;;22.47;39.97;101135.91;4424094;32;20157;-70
2021/11/10 03:16:52;;;;;;;1.20;0.28;;;;;;;22.44;39.87;101134.06;4423480;32;20098;-70
2021/11/10 03:19:18;;;;;;;0.80;0.10;;;;;;;22.46;39.94;101140.84;4423095;32;20117;-70
2021/11/10 03:21:45;;;;;;;0.25;0.10;;;;;;;22.70;39.44;101147.03;4423420;32;20063;-70
2021/11/10 03:24:10;;;;;;;0.80;0.13;;;;;;;22.68;39.51;101146.00;4422097;32;20435;-69
2021/11/10 03:26:36;;;;;;;3.17;0.37;;;;;;;22.70;39.18;101143.41;4423957;32;20085;-70
2021/11/10 03:29:03;;;;;;;0.73;0.40;;;;;;;22.45;39.41;101147.09;4421502;32;20096;-70
2021/11/10 03:31:31;;;;;;;2.50;0.20;;;;;;;22.71;38.86;101156.44;4423569;32;20063;-70
2021/11/10 03:33:58;;;;;;;1.05;0.20;;;;;;;22.94;38.49;101163.84;4421976;32;20046;-70
2021/11/10 03:36:24;;;;;;;0.43;0.20;;;;;;;22.74;38.48;101166.91;4422525;32;20124;-70
2021/11/10 03:38:50;;;;;;;2.37;0.40;;;;;;;22.74;38.29;101172.63;4419385;32;20027;-70
2021/11/10 03:41:15;;;;;;;0.80;0.20;;;;;;;22.81;38.17;101170.06;4420719;32;20038;-70
2021/11/10 03:43:42;;;;;;;1.75;0.43;;;;;;;22.85;38.02;101172.69;4422540;32;20690;-70
2021/11/10 03:46:08;;;;;;;3.12;0.60;;;;;;;22.85;37.42;101164.06;4423967;32;20045;-70
2021/11/10 03:48:35;;;;;;;3.62;0.62;;;;;;;22.77;37.20;101174.47;4424378;32;20048;-70
2021/11/10 03:51:00;;;;;;;2.55;0.60;;;;;;;22.79;37.36;101171.88;4421540;32;20033;-70
2021/11/10 03:53:27;;;;;;;2.33;0.47;;;;;;;22.74;37.21;101170.53;4421748;32;20433;-70
2021/11/10 03:55:53;;;;;;;6.78;1.02;;;;;;;22.60;37.44;101170.72;4422082;32;20081;-70
2021/11/10 03:58:18;;;;;;;4.12;0.75;;;;;;;22.65;37.97;101176.50;4420099;32;20045;-70
2021/11/10 04:00:45;;;;;;;5.95;0.62;;;;;;;22.66;38.65;101180.13;4419849;32;20494;-70
2021/11/10 04:03:10;;;;;;;3.22;0.55;;;;;;;22.65;38.75;101179.37;4420993;32;20029;-70
2021/11/10 04:05:36;;;;;;;3.50;0.55;;;;;;;22.57;38.71;101181.12;4421574;32;20068;-70
2021/11/10 04:08:02;;;;;;;6.28;0.57;;;;;;;22.29;39.06;101185.03;4422200;32;20089;-70
2021/11/10 04:10:28;;;;;;;4.07;0.60;;;;;;;22.50;39.28;101193.09;4421469;32;20045;-70
2021/11/10 04:12:55;;;;;;;6.28;1.15;;;;;;;;;;4423683;32;21097;-70
2021/11/10 04:15:21;;;;;;;2.53;0.68;;;;;;;22.58;38.89;101196.28;4419556;32;20105;-70
2021/11/10 04:17:46;;;;;;;2.53;0.47;;;;;;;22.61;38.99;101201.00;4423924;32;20177;-70
2021/11/10 04:20:12;;;;;;;2.53;0.82;;;;;;;22.52;39.33;101204.81;4423163;32;20087;-70
2021/11/10 04:22:38;;;;;;;2.95;1.08;;;;;;;22.43;39.39;101201.34;4424622;32;20029;-70
2021/11/10 04:25:04;;;;;;;5.32;0.77;;;;;;;22.20;40.25;101199.56;4419229;32;20082;-70
2021/11/10 04:27:30;;;;;;;3.08;0.40;;;;;;;22.18;40.08;101190.72;4422782;32;20046;-70
2021/11/10 04:29:56;;;;;;;4.28;0.98;;;;;;;22.23;39.53;101195.69;4421203;32;20469;-70
2021/11/10 04:32:22;;;;;;;3.05;0.47;;;;;;;22.33;39.66;101188.50;4419773;32;20499;-70
2021/11/10 04:34:48;;;;;;;2.85;0.50;;;;;;;22.27;39.58;101202.75;4421759;32;20412;-70
2021/11/10 04:37:15;;;;;;;6.07;0.60;;;;;;;21.98;39.93;101205.09;4423314;32;20046;-70
2021/11/10 04:39:42;;;;;;;2.75;0.55;;;;;;;22.22;39.66;101205.59;4420273;32;20545;-70
2021/11/10 04:42:09;;;;;;;2.25;0.50;;;;;;;22.45;39.30;101207.34;4422352;32;20131;-70
2021/11/10 04:44:36;;;;;;;6.68;0.68;;;;;;;22.56;39.06;101210.31;4420948;32;20123;-70
2021/11/10 04:47:04;;;;;;;2.12;0.40;;;;;;;22.49;39.16;101202.94;4420676;32;20561;-70
2021/11/10 04:49:30;;;;;;;3.15;0.73;;;;;;;22.48;39.14;101204.25;4418775;32;20115;-70
2021/11/10 04:51:58;;;;;;;3.20;0.40;;;;;;;22.13;39.39;101197.16;4421157;32;20060;-69
2021/11/10 04:54:29;;;;;;;2.62;0.45;;;;;;;22.54;38.95;101196.50;4420489;32;20084;-70
2021/11/10 04:56:56;;;;;;;2.42;0.52;;;;;;;22.40;39.21;101208.88;4420728;32;20533;-70
2021/11/10 04:59:21;;;;;;;5.03;0.40;;;;;;;22.35;39.28;101217.44;4422037;32;20034;-70
2021/11/10 05:04:34;;;;;;;2.47;0.50;;;;;;;22.40;39.29;101217.47;4423935;32;20042;-70
2021/11/10 05:07:01;;;;;;;2.75;0.73;;;;;;;22.36;39.29;101224.75;4420150;32;20426;-70
2021/11/10 05:09:27;;;;;;;3.87;0.55;;;;;;;22.35;39.36;101217.44;4421239;32;20047;-70
2021/11/10 05:11:53;;;;;;;4.07;0.90;;;;;;;22.02;39.19;101217.91;4422665;32;20045;-70
2021/11/10 05:14:20;;;;;;;3.05;0.45;;;;;;;21.72;39.90;101212.87;4420649;32;20478;-70
2021/11/10 05:16:46;;;;;;;5.93;0.90;;;;;;;21.95;39.46;101212.66;4422414;32;20487;-70
2021/11/10 05:19:12;;;;;;;4.15;0.55;;;;;;;21.94;39.58;101224.63;4421321;32;20503;-70
2021/11/10 05:21:39;;;;;;;3.35;0.43;;;;;;;21.85;39.43;101219.03;4420007;32;20141;-70
2021/11/10 05:24:05;;;;;;;2.97;0.70;;;;;;;21.91;39.55;101208.44;4423658;32;20093;-70
2021/11/10 05:26:31;;;;;;;4.80;0.57;;;;;;;21.93;39.38;101212.34;4421171;32;20065;-70
2021/11/10 05:28:57;;;;;;;1.17;0.50;;;;;;;22.21;39.08;101216.25;4423559;32;20030;-70
2021/11/10 05:31:23;;;;;;;2.12;0.50;;;;;;;22.22;39.32;101211.31;4419478;32;20419;-70
2021/11/10 05:33:50;;;;;;;2.95;0.62;;;;;;;22.26;39.31;101201.19;4419641;32;20046;-70
2021/11/10 05:36:16;;;;;;;3.12;0.60;;;;;;;22.03;39.36;101201.50;4422031;32;20030;-70
2021/11/10 05:38:42;;;;;;;3.42;1.10;;;;;;;22.24;38.81;101206.66;4428411;32;20246;-70
2021/11/10 05:41:08;;;;;;;3.55;0.98;;;;;;;22.37;38.86;101203.37;4422611;32;20061;-70
2021/11/10 05:43:34;;;;;;;4.78;0.88;;;;;;;22.41;38.86;101204.72;4422577;32;20070;-70
2021/11/10 05:46:00;;;;;;;3.85;0.75;;;;;;;22.44;38.88;101212.31;4425739;32;20045;-70
2021/11/10 05:48:26;;;;;;;4.55;0.85;;;;;;;22.41;38.81;101204.72;4423986;32;20100;-70
2021/11/10 05:50:53;;;;;;;2.45;0.40;;;;;;;22.52;38.79;101212.66;4421350;32;20430;-70
2021/11/10 05:53:19;;;;;;;1.55;0.30;;;;;;;22.47;38.37;101217.03;4424434;32;21205;-70
2021/11/10 05:55:51;;;;;;;1.30;0.60;;;;;;;22.38;38.10;101225.00;4422221;32;20443;-70
2021/11/10 05:58:18;;;;;;;1.30;0.35;;;;;;;22.41;38.13;101212.53;4425582;32;20026;-70
2021/11/10 06:00:45;;;;;;;7.43;0.60;;;;;;;22.41;38.22;101215.41;4424431;32;20445;-70
2021/11/10 06:03:11;;;;;;;4.82;1.40;;;;;;;22.60;37.81;101210.88;4424969;32;20441;-70
2021/11/10 06:05:36;;;;;;;5.18;0.68;;;;;;;22.51;37.81;101213.94;4424597;32;20041;-70
2021/11/10 06:08:02;;;;;;;4.60;1.00;;;;;;;22.47;37.97;101219.09;4425623;32;20153;-70
2021/11/10 06:10:29;;;;;;;6.22;0.82;;;;;;;22.41;37.88;101221.13;4423228;32;20090;-70
2021/11/10 06:12:54;;;;;;;2.87;0.80;;;;;;;22.41;37.79;101221.94;4421304;32;20037;-70
2021/11/10 06:15:21;;;;;;;2.25;0.70;;;;;;;22.21;37.73;101229.84;4424305;32;20076;-70
2021/11/10 06:17:46;;;;;;;4.12;0.90;;;;;;;22.37;37.49;101223.44;4424814;32;20030;-70
2021/11/10 06:20:13;;;;;;;4.25;0.77;;;;;;;22.28;37.74;101224.44;4422493;32;20083;-70
2021/11/10 06:22:39;;;;;;;1.55;0.50;;;;;;;22.25;37.56;101231.19;4419992;32;20058;-70
2021/11/10 06:25:06;;;;;;;5.62;0.68;;;;;;;22.25;37.32;101244.72;4425043;32;20108;-70
2021/11/10 06:27:31;;;;;;;2.03;0.52;;;;;;;22.13;37.87;101246.69;4421800;32;20325;-70
2021/11/10 06:29:58;;;;;;;3.65;0.60;;;;;;;22.04;37.91;101244.00;4423280;32;20041;-70
2021/11/10 06:32:23;;;;;;;3.80;0.85;;;;;;;21.79;38.45;101239.06;4423485;32;20081;-70
2021/11/10 06:34:49;;;;;;;5.03;0.95;;;;;;;21.99;38.25;101241.84;4420920;32;20087;-70
2021/11/10 06:37:16;;;;;;;2.90;0.73;;;;;;;21.95;38.25;101234.78;4423502;32;20096;-70
2021/11/10 06:39:42;;;;;;;2.37;0.65;;;;;;;22.22;37.74;101245.72;4421103;32;20541;-69
2021/11/10 06:42:08;;;;;;;5.37;1.05;;;;;;;21.99;37.95;101250.44;4421860;32;20109;-70
2021/11/10 06:44:34;;;;;;;3.83;1.75;;;;;;;22.18;37.70;101259.50;4421969;32;20429;-69
2021/11/10 06:47:00;;;;;;;8.98;1.50;;;;;;;21.99;38.23;101256.19;4423529;32;20033;-69
2021/11/10 06:49:27;;;;;;;4.93;0.90;;;;;;;22.06;38.09;101257.84;4425427;32;20394;-70
2021/11/10 06:51:53;;;;;;;6.97;1.52;;;;;;;22.29;37.87;101269.00;4424462;32;20022;-69
2021/11/10 06:54:19;;;;;;;5.75;0.93;;;;;;;22.11;38.09;101277.94;4420664;32;20070;-69
2021/11/10 06:56:46;;;;;;;3.40;0.95;;;;;;;22.03;37.87;101281.78;4422268;32;20791;-70
2021/11/10 06:59:11;;;;;;;4.87;0.90;;;;;;;22.01;38.16;101281.47;4424566;32;20109;-69
2021/11/10 07:01:37;;;;;;;2.70;0.90;;;;;;;21.90;38.16;101278.50;4422544;32;20073;-69
2021/11/10 07:04:03;;;;;;;5.72;1.23;;;;;;;21.91;38.11;101285.81;4423417;32;20097;-69
2021/11/10 07:06:30;;;;;;;5.03;1.05;;;;;;;22.13;37.83;101286.03;4422973;32;20586;-69
2021/11/10 07:08:56;;;;;;;7.05;2.60;;;;;;;22.11;37.86;101275.06;4419705;32;20073;-70
2021/11/10 07:11:21;;;;;;;12.48;1.50;;;;;;;22.20;37.69;101269.19;4424346;32;20038;-69
2021/11/10 07:13:47;;;;;;;6.03;1.10;;;;;;;22.31;37.45;101275.03;4422392;32;20614;-69
2021/11/10 07:16:14;;;;;;;5.15;1.25;;;;;;;22.26;37.64;101286.44;4424081;32;20054;-69
2021/11/10 07:18:40;;;;;;;11.20;1.55;;;;;;;22.39;37.63;101298.28;4421650;32;20067;-69
2021/11/10 07:21:07;;;;;;;5.78;1.58;;;;;;;22.28;37.95;101306.78;4420253;32;20030;-70
2021/11/10 07:23:33;;;;;;;8.32;2.00;;;;;;;22.34;38.00;101307.63;4419220;32;20119;-69
2021/11/10 07:26:00;;;;;;;8.95;1.85;;;;;;;22.36;37.92;101320.16;4422535;32;20048;-70
2021/11/10 07:28:26;;;;;;;6.57;2.12;;;;;;;22.22;37.99;101323.94;4422663;32;20447;-70
2021/11/10 07:30:52;;;;;;;5.43;2.00;;;;;;;22.19;38.09;101313.47;4426399;32;20123;-70
2021/11/10 07:33:18;;;;;;;9.98;2.25;;;;;;;22.24;38.04;101317.72;4421231;32;20104;-70
2021/11/10 07:35:44;;;;;;;9.85;1.83;;;;;;;22.29;37.95;101316.97;4421628;32;20042;-70
2021/11/10 07:38:10;;;;;;;5.80;1.20;;;;;;;22.29;37.72;101299.75;4418959;32;20077;-70
2021/11/10 07:40:36;;;;;;;5.78;1.42;;;;;;;22.41;37.66;101324.38;4417454;32;20102;-70
2021/11/10 07:43:02;;;;;;;8.43;1.83;;;;;;;22.55;37.38;101337.84;4421626;32;20096;-70
2021/11/10 07:48:09;;;;;;;6.85;1.37;;;;;;;22.96;36.88;101358.97;3969554;32;15022480;-71
2021/11/10 07:50:36;;;;;;;8.15;1.65;;;;;;;22.96;36.88;101360.13;4422275;32;21207;-70
2021/11/10 07:53:03;;;;;;;8.60;1.65;;;;;;;22.71;37.13;101360.97;4417642;32;20115;-71
2021/11/10 07:55:29;;;;;;;11.23;1.58;;;;;;;22.53;37.47;101364.19;4412754;32;21348;-71
2021/11/10 07:57:55;;;;;;;5.07;1.70;;;;;;;22.64;37.35;101375.75;4420290;32;20073;-71
2021/11/10 08:00:23;;;;;;;5.45;1.75;;;;;;;22.71;37.33;101371.66;4416502;32;20081;-70
2021/11/10 08:02:49;;;;;;;6.70;2.22;;;;;;;22.77;37.55;101369.63;4418754;32;20116;-71
2021/11/10 08:05:16;;;;;;;6.35;1.65;;;;;;;22.58;37.94;101369.16;4417935;32;20473;-73
2021/11/10 08:07:42;;;;;;;8.23;2.17;;;;;;;22.84;37.39;101378.56;4407830;32;20037;-71
2021/11/10 08:10:09;;;;;;;7.03;1.20;;;;;;;22.86;37.46;101372.31;4416893;32;20426;-70
2021/11/10 08:12:36;;;;;;;7.55;1.40;;;;;;;23.02;37.14;101378.19;4414553;32;20060;-70
2021/11/10 08:15:05;;;;;;;8.15;2.17;;;;;;;22.88;37.47;101381.19;4418110;32;20129;-70
2021/11/10 08:17:32;;;;;;;7.00;1.85;;;;;;;22.92;37.83;101378.88;4414453;32;20021;-70
2021/11/10 08:19:58;;;;;;;9.48;1.77;;;;;;;22.90;38.19;101384.34;4418406;32;20690;-70
2021/11/10 08:22:23;;;;;;;10.40;3.10;;;;;;;22.74;38.25;101385.75;4415354;32;20176;-70
2021/11/10 08:24:50;;;;;;;11.85;2.45;;;;;;;22.66;38.56;101390.38;4414265;32;20152;-70
2021/11/10 08:27:16;;;;;;;9.88;2.17;;;;;;;22.74;38.08;101382.13;4415321;32;20530;-70
2021/11/10 08:29:43;;;;;;;6.87;2.85;;;;;;;22.80;37.86;101386.59;4413432;32;20611;-70
2021/11/10 08:32:09;;;;;;;5.93;1.70;;;;;;;22.91;37.97;101388.78;4415912;32;20519;-69
2021/11/10 08:34:34;;;;;;;6.37;1.48;;;;;;;22.86;37.82;101375.19;4417590;32;20209;-69
2021/11/10 08:37:01;;;;;;;6.18;2.00;;;;;;;22.94;38.00;101382.03;4415729;32;20057;-70
2021/11/10 08:39:26;;;;;;;7.10;1.92;;;;;;;23.21;37.23;101390.06;4415818;32;20142;-69
2021/11/10 08:41:52;;;;;;;3.72;1.52;;;;;;;23.03;37.63;101385.50;4407205;32;20093;-69
2021/11/10 08:44:18;;;;;;;10.25;2.50;;;;;;;23.10;37.60;101392.87;4415531;32;20099;-69
2021/11/10 08:46:45;;;;;;;9.73;2.00;;;;;;;23.12;37.72;101390.25;4412155;32;20223;-70
2021/11/10 08:49:11;;;;;;;11.27;2.40;;;;;;;23.39;37.26;101398.34;4415245;32;20064;-70
2021/11/10 08:51:39;;;;;;;12.60;2.45;;;;;;;23.18;37.50;101388.22;4416342;32;20066;-69
2021/11/10 08:54:06;;;;;;;6.20;1.80;;;;;;;23.30;37.33;101398.53;4410809;32;20049;-70
2021/11/10 08:56:33;;;;;;;10.85;2.00;;;;;;;23.40;37.17;101402.78;4417061;32;20085;-70
2021/11/10 08:59:00;;;;;;;5.28;1.95;;;;;;;23.51;36.59;101414.34;4411660;32;20073;-70
2021/11/10 09:01:27;;;;;;;11.80;1.85;;;;;;;23.51;36.69;101418.00;4408181;32;20046;-71
2021/11/10 09:03:52;;;;;;;10.52;2.33;;;;;;;23.42;36.74;101408.81;4401605;32;20123;-71
2021/11/10 09:06:19;;;;;;;15.07;2.53;;;;;;;23.35;36.84;101418.66;4408891;32;20800;-70
2021/11/10 09:08:44;;;;;;;8.43;2.10;;;;;;;23.18;37.52;101412.00;4407314;32;20100;-70
2021/11/10 09:11:10;;;;;;;9.15;1.92;;;;;;;23.35;38.03;101412.16;4407677;32;20072;-70
2021/11/10 09:13:36;;;;;;;6.45;2.00;;;;;;;23.36;37.49;101411.66;4409296;32;20057;-70
2021/11/10 09:16:02;;;;;;;16.70;2.42;;;;;;;23.46;37.23;101423.72;4404006;32;20442;-70
2021/11/10 09:18:28;;;;;;;11.07;1.83;;;;;;;23.20;37.26;101422.97;4408374;32;20057;-71
2021/11/10 09:20:54;;;;;;;10.75;2.25;;;;;;;23.22;37.24;101421.16;4407297;32;20073;-70
2021/11/10 09:23:21;;;;;;;9.93;2.10;;;;;;;23.14;37.68;101420.03;4405483;32;20112;-70
2021/11/10 09:25:48;;;;;;;11.57;3.12;;;;;;;23.19;38.01;101425.03;4409769;32;20470;-70
2021/11/10 09:28:17;;;;;;;7.45;2.50;;;;;;;23.10;39.16;101418.72;4409775;32;20067;-70
2021/11/10 09:30:45;;;;;;;10.85;3.85;;;;;;;23.20;38.65;101411.47;4407186;32;20084;-70
2021/11/10 09:33:12;;;;;;;8.15;2.60;;;;;;;22.95;39.95;101409.44;4405799;32;20099;-70
2021/11/10 09:35:38;;;;;;;10.85;2.70;;;;;;;22.99;39.56;101424.34;4405756;32;20622;-70
2021/11/10 09:38:05;;;;;;;11.27;2.58;;;;;;;22.86;39.52;101413.25;4406317;32;20512;-71
2021/11/10 09:40:36;;;;;;;8.88;2.28;;;;;;;22.97;39.32;101424.06;4401932;32;20154;-70
2021/11/10 09:43:03;;;;;;;6.78;2.17;;;;;;;22.97;39.82;101432.66;4407769;32;20104;-70
2021/11/10 09:45:33;;;;;;;12.35;2.47;;;;;;;22.72;39.82;101439.22;4410611;32;20085;-70
2021/11/10 09:48:02;;;;;;;8.05;2.20;;;;;;;23.00;40.03;101440.28;4408105;32;20352;-70
2021/11/10 09:50:28;;;;;;;7.87;2.55;;;;;;;23.06;39.72;101438.25;4408986;32;20198;-70
2021/11/10 09:52:56;;;;;;;9.63;2.58;;;;;;;23.01;39.85;101447.59;4406929;32;20360;-70
2021/11/10 09:55:24;;;;;;;9.75;1.98;;;;;;;23.17;39.13;101438.34;4408979;32;20486;-70
2021/11/10 09:57:52;;;;;;;8.70;2.47;;;;;;;23.02;39.38;101449.19;4409069;32;20090;-70
2021/11/10 10:00:24;;;;;;;9.50;1.98;;;;;;;22.78;39.87;101445.81;4409536;32;20401;-70
2021/11/10 10:02:51;;;;;;;14.80;2.60;;;;;;;22.90;39.44;101461.84;4408901;32;20070;-70
2021/11/10 10:05:20;;;;;;;7.85;2.08;;;;;;;22.79;39.54;101458.84;4404999;32;20083;-70
2021/11/10 10:07:52;;;;;;;8.52;2.58;;;;;;;22.82;40.02;101460.69;4408354;32;20073;-70
2021/11/10 10:10:19;;;;;;;10.05;3.22;;;;;;;22.80;40.08;101458.34;4411008;32;20077;-68
2021/11/10 10:12:48;;;;;;;11.63;2.65;;;;;;;22.65;40.50;101465.50;4405515;32;20088;-69
2021/11/10 10:15:14;;;;;;;8.60;2.65;;;;;;;22.81;40.29;101462.81;4408330;32;21082;-70
2021/11/10 10:17:43;;;;;;;12.45;3.35;;;;;;;22.74;40.49;101462.47;4406649;32;20392;-69
2021/11/10 10:20:37;;;;;;;10.30;2.92;;;;;;;22.92;40.64;101468.66;4411443;32;20089;-69
2021/11/10 10:23:07;;;;;;;7.13;3.17;;;;;;;22.85;40.41;101471.97;4404206;32;20397;-69
2021/11/10 10:25:40;;;;;;;7.68;2.90;;;;;;;22.97;40.53;101458.50;4407528;32;20089;-71
2021/11/10 10:28:07;;;;;;;7.65;3.05;;;;;;;23.02;39.73;101452.84;4409958;32;20169;-70
2021/11/10 10:33:16;;;;;;;9.70;2.90;;;;;;;23.83;39.29;101463.94;3966155;32;15047315;-69
2021/11/10 10:38:23;;;;;;;9.48;3.37;;;;;;;23.62;39.91;101460.37;3971031;31;15704658;-70
2021/11/10 10:40:53;;;;;;;8.43;3.62;;;;;;;23.62;39.91;101460.37;4443831;32;20413;-70
2021/11/10 10:43:21;;;;;;;10.63;3.65;;;;;;;23.65;39.17;101452.84;4448057;32;20724;-69
2021/11/10 10:45:49;;;;;;;13.73;2.95;;;;;;;23.65;39.31;101452.84;4445342;32;20088;-70
2021/11/10 10:48:19;;;;;;;4.32;2.00;;;;;;;23.81;39.42;101450.09;4440442;32;20061;-70
2021/11/10 10:59:00;;;;;;;8.75;2.30;;;;;;;25.12;37.01;101457.63;3958651;32;15741330;-70
2021/11/10 11:04:06;;;;;;;12.68;2.10;;;;;;;24.55;37.06;101453.56;3975077;32;15022764;-71
2021/11/10 11:06:39;;;;;;;11.40;2.67;;;;;;;24.79;36.98;101445.28;4432964;32;20049;-71
2021/11/10 11:09:28;;;;;;;11.23;2.70;;;;;;;24.86;36.23;101451.31;4428415;32;20022;-70
2021/11/10 11:22:36;;;;;;;10.82;3.58;;;;;;;25.99;34.21;101463.87;3982984;32;15022196;-71
2021/11/10 11:25:19;;;;;;;8.63;3.15;;;;;;;25.99;34.21;101463.87;4444301;32;20120;-71
2021/11/10 11:33:21;;;;;;;10.18;3.22;;;;;;;27.15;32.63;101457.50;3966106;32;15212081;-70
2021/11/10 11:35:53;;;;;;;15.02;3.05;;;;;;;27.15;32.63;101457.50;4408175;32;20430;-70
2021/11/10 11:38:22;;;;;;;17.00;3.87;;;;;;;26.85;32.00;101448.78;4427964;32;20414;-70
2021/11/10 11:40:51;;;;;;;11.98;3.58;;;;;;;27.05;32.05;101441.81;4431574;32;20069;-70
2021/11/10 11:43:20;;;;;;;16.77;4.32;;;;;;;27.04;32.33;101446.03;4427752;32;20112;-70
2021/11/10 11:45:49;;;;;;;11.55;3.45;;;;;;;27.26;31.90;101450.87;4434645;32;20033;-70
2021/11/10 11:48:17;;;;;;;15.95;3.75;;;;;;;27.95;30.75;101449.94;4424599;32;20081;-70
2021/11/10 11:50:43;;;;;;;10.57;3.47;;;;;;;28.29;30.63;101447.44;4424069;32;20085;-70
2021/11/10 11:53:10;;;;;;;13.85;3.42;;;;;;;28.49;29.71;101444.03;4423880;32;20065;-70
2021/11/10 11:55:42;;;;;;;10.80;3.75;;;;;;;28.50;29.52;101451.41;4424925;32;20045;-70
2021/11/10 11:58:13;;;;;;;14.48;4.70;;;;;;;28.60;29.52;101435.97;4428900;32;20108;-70
2021/11/10 12:00:44;;;;;;;11.35;3.97;;;;;;;28.20;29.71;101439.16;4419989;32;20104;-70